Time;durP1;ratioP1;P1;durP2;ratioP2;P2;SDS_P1;SDS_P2;PMS_P1;PMS_P2;Temp;Humidity;BMP_temperature;BMP_pressure;BME280_temperature;BME280_humidity;BME280_pressure;Samples;Min_cycle;Max_cycle;Signal;HPM_P1;HPM_P2
2021/09/14 00:00:34;;;;;;;14.67;11.80;;;13.20;99.90;;;;;;5071365;28;20676;-62
2021/09/14 00:03:01;;;;;;;14.93;12.40;;;13.30;99.90;;;;;;5071471;28;20225;-62
2021/09/14 00:05:28;;;;;;;13.60;12.00;;;13.30;99.90;;;;;;5071116;28;20285;-63
2021/09/14 00:07:55;;;;;;;15.70;12.53;;;13.20;99.90;;;;;;5071842;28;20213;-62
2021/09/14 00:10:21;;;;;;;14.03;12.00;;;13.20;99.90;;;;;;5075312;28;20242;-63
2021/09/14 00:12:48;;;;;;;15.27;12.70;;;13.20;99.90;;;;;;5075096;28;20254;-62
2021/09/14 00:15:15;;;;;;;15.73;13.23;;;13.20;99.90;;;;;;5074909;28;20235;-62
2021/09/14 00:17:43;;;;;;;16.87;12.97;;;13.20;99.90;;;;;;5075121;28;20234;-62
2021/09/14 00:20:11;;;;;;;23.77;13.73;;;13.20;99.90;;;;;;5074869;28;20208;-63
2021/09/14 00:22:38;;;;;;;16.20;12.70;;;13.20;99.90;;;;;;5074748;28;20220;-63
2021/09/14 00:25:05;;;;;;;17.97;13.93;;;13.20;99.90;;;;;;5074765;28;20242;-63
2021/09/14 00:27:32;;;;;;;17.47;14.47;;;13.20;99.90;;;;;;5074786;28;20204;-63
2021/09/14 00:29:58;;;;;;;20.10;13.73;;;13.20;99.90;;;;;;5074894;28;20206;-63
2021/09/14 00:32:25;;;;;;;17.43;13.10;;;13.20;99.90;;;;;;5074562;28;20277;-62
2021/09/14 00:34:53;;;;;;;16.67;13.57;;;13.20;99.90;;;;;;5074429;28;20301;-63
2021/09/14 00:37:20;;;;;;;17.40;13.23;;;13.10;99.90;;;;;;5074371;28;20555;-62
2021/09/14 00:39:46;;;;;;;18.43;13.53;;;13.20;1.00;;;;;;5075074;28;20205;-63
2021/09/14 00:42:13;;;;;;;18.00;13.60;;;13.20;1.00;;;;;;5074899;28;20224;-62
2021/09/14 00:44:40;;;;;;;18.90;13.50;;;13.20;1.00;;;;;;5074416;28;20227;-62
2021/09/14 00:47:06;;;;;;;15.83;13.47;;;13.20;1.00;;;;;;5074509;28;20213;-62
2021/09/14 00:49:33;;;;;;;16.20;13.17;;;13.20;1.00;;;;;;5074247;28;20265;-62
2021/09/14 00:52:01;;;;;;;18.83;13.70;;;13.20;1.00;;;;;;5074419;28;20215;-62
2021/09/14 00:54:28;;;;;;;20.87;14.57;;;13.20;1.00;;;;;;5074041;28;20262;-62
2021/09/14 00:56:57;;;;;;;17.83;14.07;;;13.10;1.00;;;;;;5074591;28;20630;-62
2021/09/14 00:59:25;;;;;;;20.50;13.73;;;13.10;1.00;;;;;;5074259;28;20295;-62
2021/09/14 01:01:54;;;;;;;16.53;14.03;;;13.10;1.00;;;;;;5074196;28;20259;-61
2021/09/14 01:04:21;;;;;;;20.57;13.87;;;13.10;1.00;;;;;;5073806;28;20307;-62
2021/09/14 01:06:48;;;;;;;22.77;15.83;;;13.10;1.00;;;;;;5074580;28;20265;-62
2021/09/14 01:09:16;;;;;;;20.70;15.50;;;13.00;1.00;;;;;;5074179;28;20212;-63
2021/09/14 01:11:44;;;;;;;18.07;14.40;;;12.90;1.00;;;;;;5074133;28;20257;-62
2021/09/14 01:14:11;;;;;;;17.70;14.70;;;12.90;1.00;;;;;;5073892;28;20227;-62
2021/09/14 01:16:39;;;;;;;17.90;14.83;;;12.80;1.00;;;;;;5073851;28;20277;-61
2021/09/14 01:19:08;;;;;;;19.67;14.13;;;12.80;1.00;;;;;;5073386;28;20208;-62
2021/09/14 01:21:35;;;;;;;20.37;14.47;;;12.80;1.00;;;;;;5073951;28;20651;-62
2021/09/14 01:24:04;;;;;;;19.90;14.23;;;12.80;1.00;;;;;;5073438;28;20228;-62
2021/09/14 01:26:33;;;;;;;20.30;14.07;;;12.80;1.00;;;;;;5073618;28;20289;-62
2021/09/14 01:29:06;;;;;;;17.50;14.80;;;12.70;1.00;;;;;;5073643;28;20258;-62
2021/09/14 01:31:32;;;;;;;19.53;15.00;;;12.70;1.00;;;;;;5073653;28;20638;-62
2021/09/14 01:33:59;;;;;;;20.67;16.10;;;12.60;1.00;;;;;;5073123;28;20718;-62
2021/09/14 01:36:26;;;;;;;17.27;15.10;;;12.60;1.00;;;;;;5073624;28;20269;-63
2021/09/14 01:38:52;;;;;;;20.17;15.97;;;12.60;1.00;;;;;;5073390;28;20208;-62
2021/09/14 01:41:20;;;;;;;22.77;16.37;;;12.60;1.00;;;;;;5073464;28;20261;-63
2021/09/14 01:43:47;;;;;;;23.50;16.57;;;12.50;1.00;;;;;;5072846;28;20761;-63
2021/09/14 01:46:14;;;;;;;22.93;16.30;;;12.40;1.00;;;;;;5073427;28;20285;-63
2021/09/14 01:48:41;;;;;;;25.10;15.87;;;12.40;1.00;;;;;;5073348;28;20256;-63
2021/09/14 01:51:07;;;;;;;18.87;15.73;;;12.40;1.00;;;;;;5073146;28;20255;-63
2021/09/14 01:53:34;;;;;;;18.90;15.80;;;12.40;1.00;;;;;;5072803;28;20672;-63
2021/09/14 01:56:04;;;;;;;19.00;15.07;;;12.40;1.00;;;;;;5072896;28;20613;-63
2021/09/14 01:58:32;;;;;;;19.00;15.70;;;12.30;1.00;;;;;;5072887;28;20648;-63
2021/09/14 02:01:04;;;;;;;19.43;15.03;;;12.30;1.00;;;;;;5073176;28;20212;-63
2021/09/14 02:03:36;;;;;;;21.07;15.90;;;12.30;1.00;;;;;;5072717;28;20316;-63
2021/09/14 02:56:33;;;;;;;26.93;19.47;;;12.10;1.00;;;;;;5046913;28;20227;-61
2021/09/14 02:59:01;;;;;;;29.67;18.87;;;12.20;1.10;;;;;;5087684;28;20208;-62
2021/09/14 03:01:27;;;;;;;27.17;20.47;;;12.20;16.10;;;;;;5109686;28;20221;-62
2021/09/14 03:03:56;;;;;;;27.97;20.03;;;12.20;26.60;;;;;;5109619;28;20230;-62
2021/09/14 03:06:24;;;;;;;29.27;20.33;;;12.10;35.30;;;;;;5109377;28;20228;-62
2021/09/14 03:08:51;;;;;;;27.17;20.43;;;12.10;50.90;;;;;;5109400;28;20244;-61
2021/09/14 03:11:20;;;;;;;25.90;20.27;;;12.10;71.70;;;;;;5109283;28;20548;-62
2021/09/14 03:13:46;;;;;;;26.03;20.57;;;12.10;88.90;;;;;;5109416;28;20265;-61
2021/09/14 03:16:15;;;;;;;27.33;19.97;;;12.10;90.60;;;;;;5109424;28;20209;-61
2021/09/14 03:18:42;;;;;;;27.47;20.00;;;12.10;96.70;;;;;;5109395;28;20206;-61
2021/09/14 03:21:11;;;;;;;27.57;20.67;;;12.10;99.90;;;;;;5109216;28;20215;-61
2021/09/14 03:23:38;;;;;;;29.07;20.90;;;12.10;99.90;;;;;;5109026;28;20203;-61
2021/09/14 03:26:04;;;;;;;30.03;22.13;;;12.00;99.90;;;;;;5108992;28;20208;-61
2021/09/14 03:28:31;;;;;;;34.00;22.63;;;12.00;99.90;;;;;;5109943;28;20624;-62
2021/09/14 03:30:58;;;;;;;30.43;22.93;;;12.00;99.90;;;;;;5108990;28;20201;-61
2021/09/14 03:33:26;;;;;;;35.53;23.70;;;11.90;99.90;;;;;;5109531;28;20204;-60
2021/09/14 03:35:53;;;;;;;28.23;22.03;;;11.80;99.90;;;;;;5108851;28;20302;-61
2021/09/14 03:38:19;;;;;;;30.43;21.53;;;11.80;99.90;;;;;;5108906;28;20630;-60
2021/09/14 03:40:46;;;;;;;29.43;19.97;;;11.90;99.90;;;;;;5108632;28;20241;-61
2021/09/14 03:43:13;;;;;;;25.47;18.27;;;11.90;99.90;;;;;;5108910;28;20216;-62
2021/09/14 03:45:40;;;;;;;24.13;19.20;;;11.90;99.90;;;;;;5108497;28;20710;-61
2021/09/14 03:48:07;;;;;;;25.17;19.63;;;12.00;99.90;;;;;;5108577;28;20205;-62
2021/09/14 03:50:35;;;;;;;28.30;20.40;;;12.00;99.90;;;;;;5108827;28;20250;-62
2021/09/14 03:53:02;;;;;;;27.27;20.90;;;11.90;99.90;;;;;;5098738;28;20581;-60
2021/09/14 03:55:29;;;;;;;35.33;24.13;;;11.90;99.90;;;;;;5095387;28;20232;-62
2021/09/14 03:57:55;;;;;;;34.70;24.97;;;11.80;99.90;;;;;;5094828;28;20216;-62
2021/09/14 04:00:22;;;;;;;38.93;25.77;;;11.80;99.90;;;;;;5094858;28;20208;-61
2021/09/14 04:02:51;;;;;;;36.67;25.57;;;11.80;99.90;;;;;;5094891;28;20249;-62
2021/09/14 04:05:34;;;;;;;35.60;24.80;;;11.80;99.90;;;;;;5094621;28;20269;-62
2021/09/14 04:10:48;;;;;;;31.10;22.80;;;11.80;99.90;;;;;;5094660;28;20204;-62
2021/09/14 04:13:14;;;;;;;38.20;24.07;;;11.80;99.90;;;;;;5094537;28;20673;-61
2021/09/14 04:15:41;;;;;;;38.97;25.57;;;11.80;99.90;;;;;;5094415;28;20220;-62
2021/09/14 04:18:10;;;;;;;33.47;23.80;;;11.80;99.90;;;;;;5091815;28;20204;-62
2021/09/14 04:20:37;;;;;;;33.17;23.13;;;11.80;99.90;;;;;;5094511;28;20252;-61
2021/09/14 04:23:05;;;;;;;28.67;21.67;;;11.90;99.90;;;;;;5094421;28;20331;-63
2021/09/14 04:25:31;;;;;;;29.73;21.20;;;11.90;99.90;;;;;;5091472;28;20275;-63
2021/09/14 04:27:58;;;;;;;27.53;21.67;;;11.90;99.90;;;;;;5094351;28;20211;-62
2021/09/14 04:30:25;;;;;;;26.90;20.67;;;12.00;99.90;;;;;;5094010;28;20270;-61
2021/09/14 04:32:51;;;;;;;26.97;19.90;;;12.00;99.90;;;;;;5094094;28;20670;-62
2021/09/14 04:35:18;;;;;;;27.87;20.63;;;12.00;99.90;;;;;;5093974;28;20224;-62
2021/09/14 04:37:44;;;;;;;31.90;21.73;;;12.00;99.90;;;;;;5094138;28;20214;-62
2021/09/14 04:40:14;;;;;;;27.80;20.70;;;12.00;99.90;;;;;;5093795;28;20212;-62
2021/09/14 04:42:40;;;;;;;26.20;19.63;;;12.00;99.90;;;;;;5093940;28;20280;-63
2021/09/14 04:45:09;;;;;;;26.97;19.60;;;12.00;99.90;;;;;;5093225;28;20223;-62
2021/09/14 04:47:35;;;;;;;27.43;20.47;;;12.00;99.90;;;;;;5094067;28;20204;-62
2021/09/14 04:50:02;;;;;;;28.70;20.87;;;12.00;99.90;;;;;;5093882;28;20206;-62
2021/09/14 04:52:29;;;;;;;26.83;19.90;;;12.00;99.90;;;;;;5094216;28;20206;-63
2021/09/14 04:54:55;;;;;;;26.70;21.27;;;12.00;99.90;;;;;;5093534;28;20228;-62
2021/09/14 04:57:23;;;;;;;31.20;21.20;;;12.00;99.90;;;;;;5093848;28;20206;-63
2021/09/14 04:59:50;;;;;;;30.33;21.47;;;12.00;99.90;;;;;;5093604;28;20261;-62
2021/09/14 05:02:16;;;;;;;32.93;21.57;;;11.90;99.90;;;;;;5093483;28;20743;-62
2021/09/14 05:04:43;;;;;;;30.70;21.97;;;11.90;99.90;;;;;;5092286;28;20772;-63
2021/09/14 05:07:10;;;;;;;31.20;21.43;;;12.00;99.90;;;;;;5093502;28;20212;-63
2021/09/14 05:09:37;;;;;;;30.13;21.97;;;12.00;99.90;;;;;;5093456;28;20231;-63
2021/09/14 05:12:04;;;;;;;35.33;21.30;;;12.00;99.90;;;;;;5093278;28;20630;-62
2021/09/14 05:14:32;;;;;;;33.50;22.03;;;12.00;99.90;;;;;;5092774;28;20233;-63
2021/09/14 05:16:58;;;;;;;31.13;22.13;;;12.00;99.90;;;;;;5093385;28;20626;-62
2021/09/14 05:19:31;;;;;;;33.13;22.33;;;12.00;99.90;;;;;;5093285;28;20208;-62
2021/09/14 05:21:59;;;;;;;32.00;23.87;;;12.00;99.90;;;;;;5093175;28;20282;-63
2021/09/14 05:24:27;;;;;;;31.20;23.50;;;12.00;99.90;;;;;;5092787;28;20321;-61
2021/09/14 05:26:54;;;;;;;35.67;23.13;;;12.00;99.90;;;;;;5092303;28;20272;-67
2021/09/14 05:29:20;;;;;;;33.50;22.80;;;12.00;99.90;;;;;;5090768;28;20259;-63
2021/09/14 05:31:49;;;;;;;29.93;23.20;;;12.00;99.90;;;;;;5091793;28;20207;-62
2021/09/14 05:34:16;;;;;;;33.43;23.97;;;12.10;99.90;;;;;;5084227;28;20229;-65
2021/09/14 05:36:44;;;;;;;34.67;23.37;;;12.00;99.90;;;;;;5092900;28;20616;-63
2021/09/14 05:39:10;;;;;;;32.30;23.57;;;12.10;99.90;;;;;;5092344;28;20204;-63
2021/09/14 05:41:38;;;;;;;34.37;24.20;;;12.10;99.90;;;;;;5092163;28;20342;-63
2021/09/14 05:44:05;;;;;;;37.00;25.07;;;12.10;99.90;;;;;;5092104;28;20272;-65
2021/09/14 05:46:32;;;;;;;36.83;24.83;;;12.20;99.90;;;;;;5092640;28;20212;-64
2021/09/14 05:49:01;;;;;;;35.20;25.00;;;12.20;99.90;;;;;;5091726;28;20214;-65
2021/09/14 05:51:27;;;;;;;38.13;24.70;;;12.30;99.90;;;;;;5092430;28;20672;-66
2021/09/14 05:53:54;;;;;;;40.90;26.60;;;12.30;99.90;;;;;;5091707;28;20265;-64
2021/09/14 05:56:21;;;;;;;34.43;24.53;;;12.40;99.90;;;;;;5092423;28;20211;-64
2021/09/14 05:58:47;;;;;;;30.80;23.63;;;12.40;99.90;;;;;;5092419;28;20233;-64
2021/09/14 06:01:14;;;;;;;49.73;35.70;;;12.50;99.90;;;;;;5092373;28;20231;-64
2021/09/14 06:03:41;;;;;;;49.50;34.67;;;12.60;99.90;;;;;;5092050;28;20215;-64
2021/09/14 06:06:09;;;;;;;29.90;23.27;;;12.60;99.90;;;;;;5092325;28;20207;-65
2021/09/14 06:08:36;;;;;;;29.70;21.87;;;12.70;99.90;;;;;;5091997;28;20203;-64
2021/09/14 06:11:03;;;;;;;28.33;21.90;;;12.70;99.90;;;;;;5092869;28;20215;-62
2021/09/14 06:13:29;;;;;;;28.63;21.43;;;12.80;99.90;;;;;;5092210;28;20696;-64
2021/09/14 06:15:56;;;;;;;28.67;20.10;;;12.80;99.90;;;;;;5092670;28;20708;-66
2021/09/14 06:18:22;;;;;;;26.23;19.47;;;12.90;99.90;;;;;;5092303;28;20269;-63
2021/09/14 06:20:49;;;;;;;24.70;18.83;;;13.00;99.90;;;;;;5092477;28;20204;-63
2021/09/14 06:23:17;;;;;;;23.13;19.10;;;13.00;99.90;;;;;;5091625;28;20274;-64
2021/09/14 06:25:44;;;;;;;20.93;18.03;;;13.10;99.90;;;;;;5091718;28;20220;-63
2021/09/14 06:28:10;;;;;;;22.30;17.97;;;13.20;99.90;;;;;;5091660;28;20211;-63
2021/09/14 06:30:48;;;;;;;26.33;20.67;;;13.30;99.90;;;;;;5091846;28;20614;-64
2021/09/14 06:33:14;;;;;;;25.60;19.07;;;13.40;99.90;;;;;;5091185;28;20212;-65
2021/09/14 06:35:41;;;;;;;22.40;17.23;;;13.50;99.90;;;;;;5091436;28;20219;-67
2021/09/14 06:38:08;;;;;;;23.37;17.40;;;13.50;99.90;;;;;;5091955;28;20208;-64
2021/09/14 06:40:36;;;;;;;27.23;20.27;;;13.60;99.90;;;;;;5091709;28;20212;-63
2021/09/14 06:43:03;;;;;;;22.87;17.83;;;13.70;96.20;;;;;;5091284;28;20285;-64
2021/09/14 06:45:29;;;;;;;23.73;17.23;;;13.70;79.90;;;;;;5091384;28;20232;-64
2021/09/14 06:47:57;;;;;;;21.73;17.17;;;13.80;72.90;;;;;;5091555;28;20208;-65
2021/09/14 06:50:23;;;;;;;17.97;15.83;;;13.80;79.50;;;;;;5091458;28;20212;-65
2021/09/14 06:52:50;;;;;;;19.97;17.00;;;13.90;86.80;;;;;;5091568;28;20200;-65
2021/09/14 06:55:17;;;;;;;23.63;15.60;;;14.00;74.30;;;;;;5091275;28;20597;-64
2021/09/14 06:57:45;;;;;;;16.60;14.80;;;14.20;42.50;;;;;;5091652;28;20212;-65
2021/09/14 07:00:13;;;;;;;20.90;14.23;;;14.30;15.40;;;;;;5091481;28;20262;-65
2021/09/14 07:02:40;;;;;;;16.80;13.47;;;14.50;1.00;;;;;;5091346;28;20231;-66
2021/09/14 07:05:08;;;;;;;17.17;13.93;;;14.60;1.00;;;;;;5092355;28;20315;-62
2021/09/14 07:07:35;;;;;;;13.43;11.57;;;14.70;1.00;;;;;;5091363;28;20274;-66
2021/09/14 07:10:03;;;;;;;14.30;12.50;;;14.90;1.00;;;;;;5091715;28;20623;-67
2021/09/14 07:12:30;;;;;;;15.73;11.57;;;15.20;1.00;;;;;;5091015;28;20196;-64
2021/09/14 07:14:59;;;;;;;12.47;10.07;;;15.40;1.00;;;;;;5091166;28;20639;-64
2021/09/14 07:17:25;;;;;;;16.63;10.10;;;15.60;99.90;;;;;;5090941;28;20254;-63
2021/09/14 07:19:52;;;;;;;14.10;9.90;;;15.90;99.90;;;;;;5091582;28;20216;-64
2021/09/14 07:22:18;;;;;;;11.37;9.60;;;16.10;1.00;;;;;;5091236;28;20216;-64
2021/09/14 07:24:45;;;;;;;12.87;10.30;;;16.20;93.40;;;;;;5090861;28;20229;-63
2021/09/14 07:27:15;;;;;;;11.07;9.87;;;16.30;63.60;;;;;;5091901;28;20233;-67
2021/09/14 07:29:41;;;;;;;13.40;9.67;;;16.40;99.90;;;;;;5094889;28;20590;-65
2021/09/14 07:32:10;;;;;;;10.90;9.40;;;16.50;1.00;;;;;;5095108;28;20200;-65
2021/09/14 07:34:36;;;;;;;10.50;8.67;;;16.60;99.90;;;;;;5094709;28;20228;-66
2021/09/14 07:37:03;;;;;;;10.23;8.57;;;16.80;99.90;;;;;;5095129;28;20250;-64
2021/09/14 07:39:42;;;;;;;13.07;9.10;;;16.90;8.00;;;;;;5094706;28;20582;-69
2021/09/14 07:42:09;;;;;;;13.23;8.93;;;17.00;34.80;;;;;;5094451;28;20285;-68
2021/09/14 07:44:54;;;;;;;10.80;8.30;;;17.20;99.90;;;;;;5094323;28;20235;-70
2021/09/14 07:47:22;;;;;;;9.00;7.30;;;17.30;1.00;;;;;;5094838;28;20212;-65
2021/09/14 07:49:49;;;;;;;13.73;10.20;;;17.40;1.00;;;;;;5094505;28;20731;-66
2021/09/14 07:52:16;;;;;;;11.50;9.00;;;17.40;99.90;;;;;;5094650;28;20213;-66
2021/09/14 07:54:42;;;;;;;10.07;7.33;;;17.50;99.90;;;;;;5093833;28;20571;-65
2021/09/14 07:57:09;;;;;;;9.77;8.10;;;17.50;1.00;;;;;;5094683;28;20208;-65
2021/09/14 07:59:36;;;;;;;11.47;7.40;;;17.60;1.00;;;;;;5094500;28;20208;-66
2021/09/14 08:02:03;;;;;;;10.00;7.50;;;17.70;19.10;;;;;;5094460;28;20228;-65
2021/09/14 08:04:30;;;;;;;8.13;6.73;;;17.90;38.50;;;;;;5094123;28;20281;-67
2021/09/14 08:06:57;;;;;;;9.70;8.10;;;18.10;99.90;;;;;;5094185;28;20204;-66
2021/09/14 08:09:27;;;;;;;8.33;7.27;;;18.20;1.00;;;;;;5094226;28;20208;-65
2021/09/14 08:11:54;;;;;;;10.13;7.03;;;18.30;1.00;;;;;;5094118;28;20689;-65
2021/09/14 08:14:21;;;;;;;10.90;7.10;;;18.30;99.90;;;;;;5093937;28;20277;-64
2021/09/14 08:16:48;;;;;;;9.80;7.17;;;18.40;99.90;;;;;;5095152;28;20212;-64
2021/09/14 08:19:15;;;;;;;9.87;6.93;;;18.50;99.90;;;;;;5096234;28;20204;-64
2021/09/14 08:21:43;;;;;;;9.93;8.23;;;18.50;99.90;;;;;;5094082;28;20285;-63
2021/09/14 08:24:11;;;;;;;13.27;10.17;;;18.40;99.90;;;;;;5093436;28;20598;-63
2021/09/14 08:26:38;;;;;;;11.03;8.70;;;18.50;99.90;;;;;;5094201;28;20208;-63
2021/09/14 08:29:05;;;;;;;8.47;6.50;;;18.50;99.90;;;;;;5094011;28;20216;-64
2021/09/14 08:31:33;;;;;;;8.37;7.20;;;18.60;99.90;;;;;;5093993;28;20604;-63
2021/09/14 08:34:00;;;;;;;8.83;6.70;;;18.80;99.90;;;;;;5093242;28;20220;-62
2021/09/14 08:36:27;;;;;;;9.40;7.60;;;18.80;92.70;;;;;;5093666;28;20208;-63
2021/09/14 08:38:55;;;;;;;8.60;7.67;;;18.80;76.40;;;;;;5093507;28;20234;-63
2021/09/14 08:41:22;;;;;;;8.10;6.77;;;18.90;99.90;;;;;;5093752;28;20216;-64
2021/09/14 08:43:50;;;;;;;9.07;7.47;;;19.00;99.90;;;;;;5093143;28;20633;-66
2021/09/14 08:46:18;;;;;;;10.57;7.40;;;19.10;99.90;;;;;;5093895;28;20255;-66
2021/09/14 08:48:46;;;;;;;10.53;6.40;;;19.30;99.90;;;;;;5093365;28;20204;-65
2021/09/14 08:51:13;;;;;;;11.27;7.23;;;19.40;99.90;;;;;;5093739;28;20208;-63
2021/09/14 08:53:39;;;;;;;11.97;8.70;;;19.50;10.10;;;;;;5093160;28;20200;-61
2021/09/14 08:56:09;;;;;;;8.70;6.43;;;19.60;1.00;;;;;;5093531;28;20200;-64
2021/09/14 08:58:36;;;;;;;11.03;6.90;;;19.80;1.00;;;;;;5093496;28;20204;-63
2021/09/14 09:01:03;;;;;;;6.63;5.83;;;19.90;1.00;;;;;;5093276;28;20670;-62
2021/09/14 09:03:30;;;;;;;8.80;6.10;;;20.00;1.00;;;;;;5092712;28;20224;-62
2021/09/14 09:05:59;;;;;;;9.70;5.87;;;20.10;1.00;;;;;;5093593;28;20224;-62
2021/09/14 09:08:27;;;;;;;7.83;5.73;;;20.20;1.00;;;;;;5093215;28;20208;-63
2021/09/14 09:11:05;;;;;;;10.23;6.30;;;20.40;1.00;;;;;;5093003;28;20200;-62
2021/09/14 09:13:35;;;;;;;8.23;6.10;;;20.40;1.00;;;;;;5092821;28;20796;-64
2021/09/14 09:16:05;;;;;;;8.80;5.73;;;20.60;1.00;;;;;;5092881;28;20632;-64
2021/09/14 09:18:32;;;;;;;8.97;5.93;;;20.60;1.00;;;;;;5093101;28;20204;-63
2021/09/14 09:21:03;;;;;;;6.77;5.20;;;20.70;1.00;;;;;;5093029;28;20208;-63
2021/09/14 09:23:30;;;;;;;6.33;5.00;;;20.80;1.00;;;;;;5092277;28;20231;-64
2021/09/14 09:26:08;;;;;;;5.47;4.70;;;20.80;1.00;;;;;;5093221;28;20247;-62
2021/09/14 09:28:37;;;;;;;7.10;5.03;;;20.80;1.00;;;;;;5092529;28;20933;-62
2021/09/14 09:31:09;;;;;;;7.50;4.80;;;21.00;1.00;;;;;;5092759;28;20209;-61
2021/09/14 09:33:37;;;;;;;16.13;6.97;;;21.10;1.00;;;;;;5092260;28;20204;-59
2021/09/14 09:36:05;;;;;;;7.60;5.53;;;21.10;1.00;;;;;;5092771;28;20207;-62
2021/09/14 09:38:44;;;;;;;8.60;6.83;;;21.20;1.00;;;;;;5092351;28;20730;-62
2021/09/14 09:41:15;;;;;;;10.20;5.80;;;21.30;1.00;;;;;;5092369;28;20277;-62
2021/09/14 09:43:44;;;;;;;7.30;5.33;;;21.30;1.00;;;;;;5091988;28;20245;-59
2021/09/14 09:46:17;;;;;;;6.73;5.47;;;21.30;1.00;;;;;;5092509;28;20291;-60
2021/09/14 09:48:44;;;;;;;7.67;4.80;;;21.40;1.00;;;;;;5092319;28;20254;-61
2021/09/14 09:51:11;;;;;;;6.80;4.77;;;21.40;1.00;;;;;;5091759;28;20217;-59
2021/09/14 09:53:38;;;;;;;8.10;4.83;;;21.60;1.00;;;;;;5091407;28;20949;-63
2021/09/14 09:56:05;;;;;;;7.20;5.10;;;21.70;1.00;;;;;;5092448;28;20204;-62
2021/09/14 09:58:32;;;;;;;7.20;5.30;;;21.70;1.00;;;;;;5091709;28;20200;-63
2021/09/14 10:01:04;;;;;;;6.87;4.87;;;21.70;1.00;;;;;;5092238;28;20205;-62
2021/09/14 10:03:33;;;;;;;6.83;4.90;;;21.80;1.00;;;;;;5091753;28;20231;-62
2021/09/14 10:06:08;;;;;;;7.20;5.17;;;21.90;1.00;;;;;;5091867;28;20204;-61
2021/09/14 10:08:36;;;;;;;9.80;7.40;;;21.90;1.00;;;;;;5091958;28;20738;-59
2021/09/14 10:11:02;;;;;;;17.30;12.10;;;21.90;1.00;;;;;;5092138;28;20208;-58
2021/09/14 10:13:30;;;;;;;19.77;12.70;;;22.00;1.00;;;;;;5091494;28;20200;-61
2021/09/14 10:15:57;;;;;;;6.60;5.30;;;22.00;1.00;;;;;;5092597;28;20228;-65
2021/09/14 10:18:29;;;;;;;7.17;5.37;;;22.00;1.00;;;;;;5091901;28;20233;-65
2021/09/14 10:20:55;;;;;;;6.23;5.03;;;22.00;1.00;;;;;;5092345;28;20227;-63
2021/09/14 10:23:24;;;;;;;6.77;5.27;;;22.10;1.00;;;;;;5091318;28;20700;-62
2021/09/14 10:26:02;;;;;;;6.40;4.87;;;22.20;1.00;;;;;;5091811;28;20608;-64
2021/09/14 10:28:42;;;;;;;7.70;5.33;;;22.40;1.00;;;;;;5091766;28;20215;-64
2021/09/14 10:31:20;;;;;;;7.43;5.40;;;22.60;1.00;;;;;;5091644;28;20299;-64
2021/09/14 10:33:48;;;;;;;9.70;5.27;;;22.70;1.00;;;;;;5091408;28;20290;-62
2021/09/14 10:36:15;;;;;;;8.17;5.40;;;22.70;1.00;;;;;;5091783;28;20217;-63
2021/09/14 10:38:49;;;;;;;5.93;4.90;;;22.60;1.00;;;;;;5091624;28;20295;-63
2021/09/14 10:41:17;;;;;;;9.10;5.87;;;22.60;1.00;;;;;;5091572;28;20230;-62
2021/09/14 10:43:55;;;;;;;7.80;5.37;;;22.80;1.00;;;;;;5091335;28;20596;-62
2021/09/14 10:46:22;;;;;;;6.50;5.47;;;22.80;1.00;;;;;;5092053;28;20211;-62
2021/09/14 10:48:52;;;;;;;9.93;5.70;;;22.80;1.00;;;;;;5091678;28;20208;-66
2021/09/14 10:51:20;;;;;;;9.30;4.97;;;22.90;1.00;;;;;;5091838;28;20237;-67
2021/09/14 10:53:54;;;;;;;8.80;5.77;;;23.00;1.00;;;;;;5091067;28;20680;-67
2021/09/14 10:56:21;;;;;;;9.43;6.30;;;23.20;1.00;;;;;;5091662;28;20627;-66
2021/09/14 10:58:49;;;;;;;9.70;5.90;;;23.30;1.00;;;;;;5091699;28;20214;-64
2021/09/14 11:01:22;;;;;;;8.63;6.60;;;23.20;1.00;;;;;;5091852;28;20210;-64
2021/09/14 11:03:52;;;;;;;6.07;5.13;;;23.10;1.00;;;;;;5094459;28;20599;-65
2021/09/14 11:06:19;;;;;;;8.80;5.77;;;23.00;1.00;;;;;;5095304;28;20204;-69
2021/09/14 11:08:46;;;;;;;7.07;5.47;;;23.10;1.00;;;;;;5095385;28;20216;-67
2021/09/14 11:11:17;;;;;;;7.17;5.50;;;23.00;1.00;;;;;;5095565;28;20303;-69
2021/09/14 11:13:44;;;;;;;8.30;5.40;;;22.90;1.00;;;;;;5094972;28;20720;-67
2021/09/14 11:16:10;;;;;;;7.57;5.60;;;23.00;1.00;;;;;;5095329;28;20230;-67
2021/09/14 11:18:37;;;;;;;6.30;5.07;;;23.20;1.00;;;;;;5095638;28;20295;-68
2021/09/14 11:21:08;;;;;;;6.50;5.40;;;23.40;1.00;;;;;;5095209;28;20204;-69
2021/09/14 11:23:38;;;;;;;6.97;5.43;;;23.60;1.00;;;;;;5094778;28;20235;-70
2021/09/14 11:26:07;;;;;;;8.90;5.10;;;23.70;1.00;;;;;;5095809;28;20204;-69
2021/09/14 11:28:33;;;;;;;59.87;39.20;;;23.80;1.00;;;;;;5095392;28;20731;-67
2021/09/14 11:31:01;;;;;;;5.97;5.23;;;23.90;1.00;;;;;;5095298;28;20661;-67
2021/09/14 11:33:30;;;;;;;10.33;5.73;;;23.70;1.00;;;;;;5094861;28;20196;-66
2021/09/14 11:36:00;;;;;;;6.93;5.60;;;23.60;1.00;;;;;;5095289;28;20235;-66
2021/09/14 11:38:36;;;;;;;7.50;5.67;;;23.40;1.00;;;;;;5095609;28;20212;-72
2021/09/14 11:41:23;;;;;;;7.53;5.27;;;23.50;1.00;;;;;;5095425;28;20302;-72
2021/09/14 11:43:51;;;;;;;8.53;5.80;;;23.50;1.00;;;;;;5094452;28;20595;-72
2021/09/14 11:46:20;;;;;;;7.40;5.27;;;23.60;1.00;;;;;;5094125;28;20287;-65
2021/09/14 11:48:55;;;;;;;10.23;5.37;;;23.70;1.00;;;;;;5094808;28;20204;-65
2021/09/14 11:51:22;;;;;;;9.33;5.67;;;23.80;1.00;;;;;;5094987;28;20294;-64
2021/09/14 11:53:52;;;;;;;10.33;5.33;;;23.70;1.00;;;;;;5094167;28;20274;-65
2021/09/14 11:56:20;;;;;;;6.10;4.93;;;23.70;1.00;;;;;;5094436;28;20204;-64
2021/09/14 11:58:48;;;;;;;7.40;5.30;;;23.70;1.00;;;;;;5094485;28;20327;-65
2021/09/14 12:01:17;;;;;;;6.53;5.23;;;23.60;1.00;;;;;;5094651;28;20560;-64
2021/09/14 12:03:45;;;;;;;9.07;5.47;;;23.50;1.00;;;;;;5094467;28;20209;-64
2021/09/14 12:06:21;;;;;;;7.07;5.07;;;23.50;1.00;;;;;;5094409;28;20200;-65
2021/09/14 12:08:48;;;;;;;8.73;4.53;;;23.60;1.00;;;;;;5094280;28;20257;-65
2021/09/14 12:11:26;;;;;;;6.90;4.60;;;23.80;1.00;;;;;;5094490;28;20208;-65
2021/09/14 12:13:57;;;;;;;6.47;4.73;;;24.00;1.00;;;;;;5093291;28;20228;-65
2021/09/14 12:16:28;;;;;;;7.47;4.67;;;24.40;1.00;;;;;;5094136;28;20265;-64
2021/09/14 12:18:56;;;;;;;5.50;4.30;;;24.40;1.00;;;;;;5094239;28;20205;-64
2021/09/14 12:21:22;;;;;;;5.53;4.80;;;24.40;1.00;;;;;;5093856;28;20291;-64
2021/09/14 12:23:49;;;;;;;7.10;4.50;;;24.60;1.00;;;;;;5093656;28;20196;-64
2021/09/14 12:26:19;;;;;;;5.80;4.63;;;24.90;1.00;;;;;;5094485;28;20610;-67
2021/09/14 12:28:45;;;;;;;6.50;4.37;;;25.20;1.00;;;;;;5093898;28;20224;-68
2021/09/14 12:31:12;;;;;;;6.40;4.27;;;25.50;1.00;;;;;;5094121;28;20208;-68
2021/09/14 12:33:39;;;;;;;4.30;3.90;;;25.70;1.00;;;;;;5093361;28;20220;-67
2021/09/14 12:36:05;;;;;;;9.73;3.57;;;25.90;1.00;;;;;;5094006;28;20212;-67
2021/09/14 12:38:32;;;;;;;3.87;3.47;;;25.90;1.00;;;;;;5093956;28;20577;-68
2021/09/14 12:40:59;;;;;;;3.77;3.27;;;26.00;1.00;;;;;;5093885;28;20269;-68
2021/09/14 12:43:27;;;;;;;6.00;3.40;;;26.00;1.00;;;;;;5093330;28;20273;-64
2021/09/14 12:45:54;;;;;;;5.43;3.13;;;26.00;1.00;;;;;;5093757;28;20227;-67
2021/09/14 12:48:22;;;;;;;5.70;3.30;;;26.00;1.00;;;;;;5093497;28;20211;-69
2021/09/14 12:50:49;;;;;;;3.53;3.23;;;26.00;1.00;;;;;;5093575;28;20611;-70
2021/09/14 12:53:15;;;;;;;3.03;2.67;;;26.00;1.00;;;;;;5093301;28;20208;-67
2021/09/14 12:55:42;;;;;;;4.70;3.00;;;26.00;1.00;;;;;;5093114;28;20231;-66
2021/09/14 12:58:09;;;;;;;4.43;3.20;;;26.10;1.00;;;;;;5093859;28;20217;-68
2021/09/14 13:00:38;;;;;;;4.77;2.90;;;26.00;1.00;;;;;;5093294;28;20208;-66
2021/09/14 13:03:05;;;;;;;4.40;3.20;;;26.00;1.00;;;;;;5092944;28;20204;-66
2021/09/14 13:05:33;;;;;;;6.50;3.37;;;26.00;1.00;;;;;;5093063;28;20228;-65
2021/09/14 13:08:00;;;;;;;5.40;3.20;;;26.00;1.00;;;;;;5093417;28;20254;-65
2021/09/14 13:10:27;;;;;;;4.07;3.27;;;25.90;1.00;;;;;;5093245;28;20578;-68
2021/09/14 13:18:20;;;;;;;3.80;3.23;;;26.00;1.00;;;;;;5092329;28;20575;-70
2021/09/14 13:20:47;;;;;;;3.90;3.10;;;25.80;1.00;;;;;;5092957;28;20208;-67
2021/09/14 13:23:14;;;;;;;3.57;3.00;;;25.70;1.00;;;;;;5092347;28;20295;-66
2021/09/14 13:25:41;;;;;;;5.37;3.03;;;25.70;1.00;;;;;;5091640;28;20796;-67
2021/09/14 13:28:07;;;;;;;3.80;3.40;;;25.70;1.00;;;;;;5092555;28;20212;-66
2021/09/14 13:30:34;;;;;;;9.33;6.50;;;25.60;1.00;;;;;;5092910;28;20212;-65
2021/09/14 13:33:03;;;;;;;3.33;2.87;;;25.50;1.00;;;;;;5092572;28;20253;-65
2021/09/14 13:35:30;;;;;;;2.80;2.60;;;25.40;1.00;;;;;;5092562;28;20227;-66
2021/09/14 13:37:57;;;;;;;9.57;3.10;;;25.40;1.00;;;;;;5093091;28;20261;-68
2021/09/14 13:40:24;;;;;;;4.23;3.10;;;25.20;1.00;;;;;;5092474;28;20211;-68
2021/09/14 13:42:57;;;;;;;3.17;2.87;;;25.10;1.00;;;;;;5092423;28;20242;-65